sensor_id;sensor_type;location;lat;lon;timestamp;P1;durP1;ratioP1;P2;durP2;ratioP2
34030;SDS011;20319;28.466;-16.274;2024-03-17T00:00:29;3.40;;;1.45;;
34030;SDS011;20319;28.466;-16.274;2024-03-17T00:02:56;2.50;;;1.48;;
34030;SDS011;20319;28.466;-16.274;2024-03-17T00:05:22;6.65;;;1.40;;
34030;SDS011;20319;28.466;-16.274;2024-03-17T00:07:47;3.25;;;1.15;;
34030;SDS011;20319;28.466;-16.274;2024-03-17T00:10:13;3.20;;;1.30;;
34030;SDS011;20319;28.466;-16.274;2024-03-17T00:12:40;4.25;;;1.60;;
34030;SDS011;20319;28.466;-16.274;2024-03-17T00:15:06;4.63;;;1.60;;
34030;SDS011;20319;28.466;-16.274;2024-03-17T00:17:32;4.07;;;1.40;;
34030;SDS011;20319;28.466;-16.274;2024-03-17T00:20:00;3.55;;;1.75;;
34030;SDS011;20319;28.466;-16.274;2024-03-17T00:22:34;3.35;;;1.27;;
34030;SDS011;20319;28.466;-16.274;2024-03-17T00:25:04;3.45;;;1.40;;
34030;SDS011;20319;28.466;-16.274;2024-03-17T00:27:31;4.72;;;1.50;;
34030;SDS011;20319;28.466;-16.274;2024-03-17T00:29:56;4.25;;;1.27;;
34030;SDS011;20319;28.466;-16.274;2024-03-17T00:32:22;5.35;;;1.50;;
34030;SDS011;20319;28.466;-16.274;2024-03-17T00:34:48;3.60;;;1.55;;
34030;SDS011;20319;28.466;-16.274;2024-03-17T00:37:14;2.83;;;1.20;;
34030;SDS011;20319;28.466;-16.274;2024-03-17T00:39:40;3.40;;;1.30;;
34030;SDS011;20319;28.466;-16.274;2024-03-17T00:42:05;4.57;;;1.20;;
34030;SDS011;20319;28.466;-16.274;2024-03-17T00:44:31;4.03;;;1.65;;
34030;SDS011;20319;28.466;-16.274;2024-03-17T00:46:57;6.88;;;1.50;;
34030;SDS011;20319;28.466;-16.274;2024-03-17T00:49:23;2.67;;;1.13;;
34030;SDS011;20319;28.466;-16.274;2024-03-17T00:51:48;4.22;;;1.60;;
34030;SDS011;20319;28.466;-16.274;2024-03-17T00:54:15;4.95;;;1.67;;
34030;SDS011;20319;28.466;-16.274;2024-03-17T00:56:43;7.88;;;2.78;;
34030;SDS011;20319;28.466;-16.274;2024-03-17T00:59:08;12.65;;;4.55;;
34030;SDS011;20319;28.466;-16.274;2024-03-17T01:01:34;13.82;;;5.10;;
34030;SDS011;20319;28.466;-16.274;2024-03-17T01:04:00;17.80;;;7.07;;
34030;SDS011;20319;28.466;-16.274;2024-03-17T01:06:25;18.30;;;7.88;;
34030;SDS011;20319;28.466;-16.274;2024-03-17T01:08:51;17.95;;;8.30;;
34030;SDS011;20319;28.466;-16.274;2024-03-17T01:11:17;21.75;;;8.98;;
34030;SDS011;20319;28.466;-16.274;2024-03-17T01:13:44;25.20;;;9.90;;
34030;SDS011;20319;28.466;-16.274;2024-03-17T01:16:13;22.85;;;10.52;;
34030;SDS011;20319;28.466;-16.274;2024-03-17T01:18:38;24.75;;;10.90;;
34030;SDS011;20319;28.466;-16.274;2024-03-17T01:21:05;27.25;;;11.38;;
34030;SDS011;20319;28.466;-16.274;2024-03-17T01:23:31;23.77;;;9.43;;
34030;SDS011;20319;28.466;-16.274;2024-03-17T01:25:57;28.23;;;9.23;;
34030;SDS011;20319;28.466;-16.274;2024-03-17T01:28:23;28.45;;;10.77;;
34030;SDS011;20319;28.466;-16.274;2024-03-17T01:30:49;21.73;;;10.65;;
34030;SDS011;20319;28.466;-16.274;2024-03-17T01:33:14;24.50;;;11.73;;
34030;SDS011;20319;28.466;-16.274;2024-03-17T01:35:40;25.52;;;10.63;;
34030;SDS011;20319;28.466;-16.274;2024-03-17T01:38:06;23.88;;;10.65;;
34030;SDS011;20319;28.466;-16.274;2024-03-17T01:40:31;23.77;;;9.70;;
34030;SDS011;20319;28.466;-16.274;2024-03-17T01:42:57;20.58;;;10.05;;
34030;SDS011;20319;28.466;-16.274;2024-03-17T01:45:29;23.83;;;10.80;;
34030;SDS011;20319;28.466;-16.274;2024-03-17T01:47:57;24.73;;;10.15;;
34030;SDS011;20319;28.466;-16.274;2024-03-17T01:50:28;28.30;;;10.57;;
34030;SDS011;20319;28.466;-16.274;2024-03-17T01:52:57;25.20;;;10.68;;
34030;SDS011;20319;28.466;-16.274;2024-03-17T01:55:26;29.23;;;11.68;;
34030;SDS011;20319;28.466;-16.274;2024-03-17T01:57:53;27.73;;;10.63;;
34030;SDS011;20319;28.466;-16.274;2024-03-17T02:00:19;25.52;;;10.77;;
34030;SDS011;20319;28.466;-16.274;2024-03-17T02:02:45;28.23;;;11.45;;
34030;SDS011;20319;28.466;-16.274;2024-03-17T02:05:11;26.52;;;10.50;;
34030;SDS011;20319;28.466;-16.274;2024-03-17T02:07:36;21.40;;;9.63;;
34030;SDS011;20319;28.466;-16.274;2024-03-17T02:10:02;19.17;;;9.40;;
34030;SDS011;20319;28.466;-16.274;2024-03-17T02:12:29;18.92;;;9.15;;
34030;SDS011;20319;28.466;-16.274;2024-03-17T02:14:56;25.77;;;10.10;;
34030;SDS011;20319;28.466;-16.274;2024-03-17T02:17:25;23.17;;;10.38;;
34030;SDS011;20319;28.466;-16.274;2024-03-17T02:19:53;21.13;;;10.50;;
34030;SDS011;20319;28.466;-16.274;2024-03-17T02:22:19;23.30;;;10.55;;
34030;SDS011;20319;28.466;-16.274;2024-03-17T02:24:45;18.63;;;9.52;;
34030;SDS011;20319;28.466;-16.274;2024-03-17T02:27:11;22.67;;;9.60;;
34030;SDS011;20319;28.466;-16.274;2024-03-17T02:29:37;13.27;;;6.88;;
34030;SDS011;20319;28.466;-16.274;2024-03-17T02:32:04;13.95;;;7.72;;
34030;SDS011;20319;28.466;-16.274;2024-03-17T02:34:35;11.80;;;5.40;;
34030;SDS011;20319;28.466;-16.274;2024-03-17T02:37:02;11.07;;;5.03;;
34030;SDS011;20319;28.466;-16.274;2024-03-17T02:39:30;13.27;;;5.00;;
34030;SDS011;20319;28.466;-16.274;2024-03-17T02:42:02;10.25;;;4.05;;
34030;SDS011;20319;28.466;-16.274;2024-03-17T02:44:35;8.20;;;2.92;;
34030;SDS011;20319;28.466;-16.274;2024-03-17T02:47:03;8.23;;;3.47;;
34030;SDS011;20319;28.466;-16.274;2024-03-17T02:49:30;8.50;;;3.00;;
34030;SDS011;20319;28.466;-16.274;2024-03-17T02:52:04;5.60;;;2.60;;
34030;SDS011;20319;28.466;-16.274;2024-03-17T02:54:36;4.82;;;2.50;;
34030;SDS011;20319;28.466;-16.274;2024-03-17T02:57:02;9.23;;;3.05;;
34030;SDS011;20319;28.466;-16.274;2024-03-17T02:59:28;6.63;;;2.97;;
34030;SDS011;20319;28.466;-16.274;2024-03-17T03:01:54;8.65;;;3.40;;
34030;SDS011;20319;28.466;-16.274;2024-03-17T03:04:20;6.20;;;2.80;;
34030;SDS011;20319;28.466;-16.274;2024-03-17T03:06:45;6.78;;;3.17;;
34030;SDS011;20319;28.466;-16.274;2024-03-17T03:09:11;13.30;;;5.53;;
34030;SDS011;20319;28.466;-16.274;2024-03-17T03:11:45;10.75;;;5.63;;
34030;SDS011;20319;28.466;-16.274;2024-03-17T03:14:12;11.10;;;4.72;;
34030;SDS011;20319;28.466;-16.274;2024-03-17T03:16:38;11.38;;;5.45;;
34030;SDS011;20319;28.466;-16.274;2024-03-17T03:19:04;16.65;;;6.65;;
34030;SDS011;20319;28.466;-16.274;2024-03-17T03:21:33;15.75;;;6.70;;
34030;SDS011;20319;28.466;-16.274;2024-03-17T03:23:58;15.73;;;7.00;;
34030;SDS011;20319;28.466;-16.274;2024-03-17T03:26:24;14.65;;;5.95;;
34030;SDS011;20319;28.466;-16.274;2024-03-17T03:28:50;18.20;;;7.28;;
34030;SDS011;20319;28.466;-16.274;2024-03-17T03:31:15;17.05;;;6.25;;
34030;SDS011;20319;28.466;-16.274;2024-03-17T03:33:42;17.33;;;6.15;;
34030;SDS011;20319;28.466;-16.274;2024-03-17T03:36:09;10.00;;;4.43;;
34030;SDS011;20319;28.466;-16.274;2024-03-17T03:38:36;11.88;;;4.78;;
34030;SDS011;20319;28.466;-16.274;2024-03-17T03:41:13;11.20;;;5.10;;
34030;SDS011;20319;28.466;-16.274;2024-03-17T03:43:39;13.90;;;5.45;;
34030;SDS011;20319;28.466;-16.274;2024-03-17T03:46:06;8.98;;;5.15;;
34030;SDS011;20319;28.466;-16.274;2024-03-17T03:48:32;12.43;;;4.93;;
34030;SDS011;20319;28.466;-16.274;2024-03-17T03:50:59;11.10;;;5.07;;
34030;SDS011;20319;28.466;-16.274;2024-03-17T03:53:31;9.15;;;4.35;;
34030;SDS011;20319;28.466;-16.274;2024-03-17T03:55:57;19.70;;;8.43;;
34030;SDS011;20319;28.466;-16.274;2024-03-17T03:58:24;14.98;;;6.55;;
34030;SDS011;20319;28.466;-16.274;2024-03-17T04:00:50;19.25;;;7.45;;
34030;SDS011;20319;28.466;-16.274;2024-03-17T04:03:15;23.95;;;7.53;;
34030;SDS011;20319;28.466;-16.274;2024-03-17T04:05:41;17.98;;;7.93;;
34030;SDS011;20319;28.466;-16.274;2024-03-17T04:08:06;17.23;;;7.88;;
34030;SDS011;20319;28.466;-16.274;2024-03-17T04:10:33;21.50;;;9.00;;
34030;SDS011;20319;28.466;-16.274;2024-03-17T04:12:59;21.77;;;10.30;;
34030;SDS011;20319;28.466;-16.274;2024-03-17T04:15:25;27.08;;;10.05;;
34030;SDS011;20319;28.466;-16.274;2024-03-17T04:17:50;28.10;;;9.15;;
34030;SDS011;20319;28.466;-16.274;2024-03-17T04:20:17;23.55;;;9.25;;
34030;SDS011;20319;28.466;-16.274;2024-03-17T04:22:43;24.13;;;9.80;;
34030;SDS011;20319;28.466;-16.274;2024-03-17T04:25:09;20.38;;;9.63;;
34030;SDS011;20319;28.466;-16.274;2024-03-17T04:27:35;23.15;;;9.18;;
34030;SDS011;20319;28.466;-16.274;2024-03-17T04:30:01;22.42;;;9.30;;
34030;SDS011;20319;28.466;-16.274;2024-03-17T04:32:31;22.45;;;9.15;;
34030;SDS011;20319;28.466;-16.274;2024-03-17T04:34:56;20.10;;;9.05;;
34030;SDS011;20319;28.466;-16.274;2024-03-17T04:37:22;25.85;;;9.80;;
34030;SDS011;20319;28.466;-16.274;2024-03-17T04:39:48;15.77;;;8.13;;
34030;SDS011;20319;28.466;-16.274;2024-03-17T04:42:14;24.13;;;8.65;;
34030;SDS011;20319;28.466;-16.274;2024-03-17T04:44:44;18.45;;;8.48;;
34030;SDS011;20319;28.466;-16.274;2024-03-17T04:47:10;17.48;;;8.25;;
34030;SDS011;20319;28.466;-16.274;2024-03-17T04:49:38;20.60;;;8.20;;
34030;SDS011;20319;28.466;-16.274;2024-03-17T04:52:11;23.63;;;8.23;;
34030;SDS011;20319;28.466;-16.274;2024-03-17T04:54:37;22.45;;;7.78;;
34030;SDS011;20319;28.466;-16.274;2024-03-17T04:57:03;17.05;;;7.93;;
34030;SDS011;20319;28.466;-16.274;2024-03-17T04:59:29;19.42;;;7.45;;
34030;SDS011;20319;28.466;-16.274;2024-03-17T05:01:55;18.95;;;7.35;;
34030;SDS011;20319;28.466;-16.274;2024-03-17T05:04:21;16.50;;;6.97;;
34030;SDS011;20319;28.466;-16.274;2024-03-17T05:06:48;19.65;;;7.68;;
34030;SDS011;20319;28.466;-16.274;2024-03-17T05:09:18;16.83;;;8.27;;
34030;SDS011;20319;28.466;-16.274;2024-03-17T05:11:44;19.40;;;6.97;;
34030;SDS011;20319;28.466;-16.274;2024-03-17T05:14:10;20.77;;;6.55;;
34030;SDS011;20319;28.466;-16.274;2024-03-17T05:16:36;13.75;;;6.82;;
34030;SDS011;20319;28.466;-16.274;2024-03-17T05:19:02;18.42;;;7.10;;
34030;SDS011;20319;28.466;-16.274;2024-03-17T05:21:28;26.70;;;8.27;;
34030;SDS011;20319;28.466;-16.274;2024-03-17T05:23:57;20.17;;;6.90;;
34030;SDS011;20319;28.466;-16.274;2024-03-17T05:26:23;17.52;;;7.15;;
34030;SDS011;20319;28.466;-16.274;2024-03-17T05:28:49;19.95;;;7.25;;
34030;SDS011;20319;28.466;-16.274;2024-03-17T05:31:15;16.00;;;7.10;;
34030;SDS011;20319;28.466;-16.274;2024-03-17T05:33:42;15.55;;;6.72;;
34030;SDS011;20319;28.466;-16.274;2024-03-17T05:36:09;21.58;;;6.72;;
34030;SDS011;20319;28.466;-16.274;2024-03-17T05:38:34;20.05;;;6.13;;
34030;SDS011;20319;28.466;-16.274;2024-03-17T05:41:01;18.67;;;5.95;;
34030;SDS011;20319;28.466;-16.274;2024-03-17T05:43:31;18.45;;;6.60;;
34030;SDS011;20319;28.466;-16.274;2024-03-17T05:45:58;17.67;;;5.82;;
34030;SDS011;20319;28.466;-16.274;2024-03-17T05:48:26;15.00;;;6.03;;
34030;SDS011;20319;28.466;-16.274;2024-03-17T05:50:52;13.70;;;5.70;;
34030;SDS011;20319;28.466;-16.274;2024-03-17T05:53:18;15.68;;;6.50;;
34030;SDS011;20319;28.466;-16.274;2024-03-17T05:55:45;15.40;;;5.93;;
34030;SDS011;20319;28.466;-16.274;2024-03-17T05:58:11;18.45;;;5.97;;
34030;SDS011;20319;28.466;-16.274;2024-03-17T06:00:37;10.25;;;5.35;;
34030;SDS011;20319;28.466;-16.274;2024-03-17T06:03:04;16.85;;;6.45;;
34030;SDS011;20319;28.466;-16.274;2024-03-17T06:05:31;11.63;;;5.28;;
34030;SDS011;20319;28.466;-16.274;2024-03-17T06:07:58;12.45;;;5.05;;
34030;SDS011;20319;28.466;-16.274;2024-03-17T06:10:24;14.63;;;5.18;;
34030;SDS011;20319;28.466;-16.274;2024-03-17T06:12:52;15.88;;;5.38;;
34030;SDS011;20319;28.466;-16.274;2024-03-17T06:15:17;12.50;;;5.70;;
34030;SDS011;20319;28.466;-16.274;2024-03-17T06:17:43;13.63;;;4.60;;
34030;SDS011;20319;28.466;-16.274;2024-03-17T06:20:09;16.33;;;6.05;;
34030;SDS011;20319;28.466;-16.274;2024-03-17T06:22:39;14.75;;;5.93;;
34030;SDS011;20319;28.466;-16.274;2024-03-17T06:25:05;14.48;;;4.57;;
34030;SDS011;20319;28.466;-16.274;2024-03-17T06:27:31;12.50;;;5.20;;
34030;SDS011;20319;28.466;-16.274;2024-03-17T06:30:01;12.02;;;5.82;;
34030;SDS011;20319;28.466;-16.274;2024-03-17T06:32:33;16.23;;;6.30;;
34030;SDS011;20319;28.466;-16.274;2024-03-17T06:34:59;13.02;;;5.15;;
34030;SDS011;20319;28.466;-16.274;2024-03-17T06:37:26;17.00;;;5.50;;
34030;SDS011;20319;28.466;-16.274;2024-03-17T06:39:52;15.88;;;5.20;;
34030;SDS011;20319;28.466;-16.274;2024-03-17T06:42:18;12.65;;;4.90;;
34030;SDS011;20319;28.466;-16.274;2024-03-17T06:44:44;13.48;;;5.50;;
34030;SDS011;20319;28.466;-16.274;2024-03-17T06:47:10;10.00;;;5.00;;
34030;SDS011;20319;28.466;-16.274;2024-03-17T06:49:36;12.70;;;4.85;;
34030;SDS011;20319;28.466;-16.274;2024-03-17T06:52:01;11.52;;;5.15;;
34030;SDS011;20319;28.466;-16.274;2024-03-17T06:54:27;15.20;;;5.32;;
34030;SDS011;20319;28.466;-16.274;2024-03-17T06:56:53;9.68;;;4.82;;
34030;SDS011;20319;28.466;-16.274;2024-03-17T06:59:18;10.63;;;4.63;;
34030;SDS011;20319;28.466;-16.274;2024-03-17T07:01:46;14.05;;;4.53;;
34030;SDS011;20319;28.466;-16.274;2024-03-17T07:04:12;13.30;;;4.75;;
34030;SDS011;20319;28.466;-16.274;2024-03-17T07:06:38;14.20;;;5.18;;
34030;SDS011;20319;28.466;-16.274;2024-03-17T07:09:04;12.95;;;4.85;;
34030;SDS011;20319;28.466;-16.274;2024-03-17T07:11:29;11.23;;;4.60;;
34030;SDS011;20319;28.466;-16.274;2024-03-17T07:13:55;14.45;;;5.05;;
34030;SDS011;20319;28.466;-16.274;2024-03-17T07:16:20;11.65;;;4.68;;
34030;SDS011;20319;28.466;-16.274;2024-03-17T07:18:47;13.77;;;4.70;;
34030;SDS011;20319;28.466;-16.274;2024-03-17T07:21:12;13.40;;;4.93;;
34030;SDS011;20319;28.466;-16.274;2024-03-17T07:23:38;14.73;;;4.75;;
34030;SDS011;20319;28.466;-16.274;2024-03-17T07:26:04;12.38;;;5.47;;
34030;SDS011;20319;28.466;-16.274;2024-03-17T07:28:30;13.30;;;5.20;;
34030;SDS011;20319;28.466;-16.274;2024-03-17T07:30:56;13.05;;;5.63;;
34030;SDS011;20319;28.466;-16.274;2024-03-17T07:33:23;17.63;;;4.70;;
34030;SDS011;20319;28.466;-16.274;2024-03-17T07:38:20;15.20;;;4.45;;
34030;SDS011;20319;28.466;-16.274;2024-03-17T07:40:55;13.13;;;4.57;;
34030;SDS011;20319;28.466;-16.274;2024-03-17T07:43:28;12.68;;;3.88;;
34030;SDS011;20319;28.466;-16.274;2024-03-17T07:48:28;12.40;;;4.13;;
34030;SDS011;20319;28.466;-16.274;2024-03-17T07:51:00;10.38;;;3.72;;
34030;SDS011;20319;28.466;-16.274;2024-03-17T07:53:33;10.70;;;4.50;;
34030;SDS011;20319;28.466;-16.274;2024-03-17T07:58:41;13.45;;;4.30;;
34030;SDS011;20319;28.466;-16.274;2024-03-17T08:01:08;10.88;;;4.45;;
34030;SDS011;20319;28.466;-16.274;2024-03-17T08:03:36;10.43;;;3.50;;
34030;SDS011;20319;28.466;-16.274;2024-03-17T08:06:03;12.32;;;4.20;;
34030;SDS011;20319;28.466;-16.274;2024-03-17T08:08:30;14.85;;;4.20;;
34030;SDS011;20319;28.466;-16.274;2024-03-17T08:10:57;13.25;;;4.20;;
34030;SDS011;20319;28.466;-16.274;2024-03-17T08:13:23;13.27;;;4.32;;
34030;SDS011;20319;28.466;-16.274;2024-03-17T08:15:55;12.73;;;4.40;;
34030;SDS011;20319;28.466;-16.274;2024-03-17T08:18:23;18.10;;;4.57;;
34030;SDS011;20319;28.466;-16.274;2024-03-17T08:20:49;10.95;;;4.72;;
34030;SDS011;20319;28.466;-16.274;2024-03-17T08:23:14;11.20;;;3.97;;
34030;SDS011;20319;28.466;-16.274;2024-03-17T08:25:40;16.55;;;4.93;;
34030;SDS011;20319;28.466;-16.274;2024-03-17T08:28:06;14.60;;;4.30;;
34030;SDS011;20319;28.466;-16.274;2024-03-17T08:30:34;9.65;;;4.40;;
34030;SDS011;20319;28.466;-16.274;2024-03-17T08:33:00;11.85;;;3.75;;
34030;SDS011;20319;28.466;-16.274;2024-03-17T08:35:26;14.60;;;4.20;;
34030;SDS011;20319;28.466;-16.274;2024-03-17T08:37:52;9.88;;;4.95;;
34030;SDS011;20319;28.466;-16.274;2024-03-17T08:40:21;10.57;;;3.78;;
34030;SDS011;20319;28.466;-16.274;2024-03-17T08:42:47;6.50;;;3.45;;
34030;SDS011;20319;28.466;-16.274;2024-03-17T08:45:13;12.95;;;3.88;;
34030;SDS011;20319;28.466;-16.274;2024-03-17T08:47:39;7.85;;;3.63;;
34030;SDS011;20319;28.466;-16.274;2024-03-17T08:50:05;7.95;;;3.28;;
34030;SDS011;20319;28.466;-16.274;2024-03-17T08:52:33;11.75;;;3.50;;
34030;SDS011;20319;28.466;-16.274;2024-03-17T08:54:59;7.88;;;3.38;;
34030;SDS011;20319;28.466;-16.274;2024-03-17T08:57:25;10.57;;;3.63;;
34030;SDS011;20319;28.466;-16.274;2024-03-17T08:59:51;10.32;;;3.20;;
34030;SDS011;20319;28.466;-16.274;2024-03-17T09:02:19;11.00;;;3.60;;
34030;SDS011;20319;28.466;-16.274;2024-03-17T09:04:49;11.15;;;3.42;;
34030;SDS011;20319;28.466;-16.274;2024-03-17T09:07:14;10.98;;;3.60;;
34030;SDS011;20319;28.466;-16.274;2024-03-17T09:09:42;9.67;;;3.60;;
34030;SDS011;20319;28.466;-16.274;2024-03-17T09:12:08;10.10;;;3.45;;
34030;SDS011;20319;28.466;-16.274;2024-03-17T09:14:34;13.32;;;3.60;;
34030;SDS011;20319;28.466;-16.274;2024-03-17T09:17:00;10.20;;;3.60;;
34030;SDS011;20319;28.466;-16.274;2024-03-17T09:19:25;10.75;;;3.72;;
34030;SDS011;20319;28.466;-16.274;2024-03-17T09:21:51;11.95;;;3.95;;
34030;SDS011;20319;28.466;-16.274;2024-03-17T09:24:16;9.40;;;3.33;;
34030;SDS011;20319;28.466;-16.274;2024-03-17T09:26:42;9.15;;;3.67;;
34030;SDS011;20319;28.466;-16.274;2024-03-17T09:29:07;12.20;;;3.08;;
34030;SDS011;20319;28.466;-16.274;2024-03-17T09:31:33;9.63;;;3.05;;
34030;SDS011;20319;28.466;-16.274;2024-03-17T09:34:01;9.73;;;3.35;;
34030;SDS011;20319;28.466;-16.274;2024-03-17T09:36:28;9.80;;;3.38;;
34030;SDS011;20319;28.466;-16.274;2024-03-17T09:38:53;7.85;;;2.95;;
34030;SDS011;20319;28.466;-16.274;2024-03-17T09:41:22;12.15;;;4.07;;
34030;SDS011;20319;28.466;-16.274;2024-03-17T09:43:54;7.20;;;3.00;;
34030;SDS011;20319;28.466;-16.274;2024-03-17T09:46:20;10.55;;;3.83;;
34030;SDS011;20319;28.466;-16.274;2024-03-17T09:48:48;8.40;;;3.08;;
34030;SDS011;20319;28.466;-16.274;2024-03-17T09:51:24;6.97;;;3.25;;
34030;SDS011;20319;28.466;-16.274;2024-03-17T09:53:51;11.18;;;3.40;;
34030;SDS011;20319;28.466;-16.274;2024-03-17T09:56:19;9.68;;;3.50;;
34030;SDS011;20319;28.466;-16.274;2024-03-17T09:58:46;15.10;;;3.30;;
34030;SDS011;20319;28.466;-16.274;2024-03-17T10:01:12;9.43;;;3.63;;
34030;SDS011;20319;28.466;-16.274;2024-03-17T10:03:59;10.00;;;3.33;;
34030;SDS011;20319;28.466;-16.274;2024-03-17T10:06:28;9.63;;;3.25;;
34030;SDS011;20319;28.466;-16.274;2024-03-17T10:08:55;12.45;;;2.78;;
34030;SDS011;20319;28.466;-16.274;2024-03-17T10:11:25;5.38;;;2.58;;
34030;SDS011;20319;28.466;-16.274;2024-03-17T10:16:35;13.23;;;4.78;;
34030;SDS011;20319;28.466;-16.274;2024-03-17T10:19:09;13.07;;;5.70;;
34030;SDS011;20319;28.466;-16.274;2024-03-17T10:21:47;10.68;;;3.30;;
34030;SDS011;20319;28.466;-16.274;2024-03-17T10:24:19;9.85;;;2.80;;
34030;SDS011;20319;28.466;-16.274;2024-03-17T10:29:19;11.00;;;3.50;;
34030;SDS011;20319;28.466;-16.274;2024-03-17T10:31:53;10.88;;;3.88;;
34030;SDS011;20319;28.466;-16.274;2024-03-17T10:34:20;9.82;;;3.40;;
34030;SDS011;20319;28.466;-16.274;2024-03-17T10:36:50;13.10;;;3.50;;
34030;SDS011;20319;28.466;-16.274;2024-03-17T10:39:54;11.30;;;3.00;;
34030;SDS011;20319;28.466;-16.274;2024-03-17T10:42:26;10.15;;;3.30;;
34030;SDS011;20319;28.466;-16.274;2024-03-17T10:45:01;12.95;;;3.63;;
34030;SDS011;20319;28.466;-16.274;2024-03-17T10:47:33;12.60;;;3.63;;
34030;SDS011;20319;28.466;-16.274;2024-03-17T10:49:59;11.95;;;3.70;;
34030;SDS011;20319;28.466;-16.274;2024-03-17T10:52:28;10.00;;;3.35;;
34030;SDS011;20319;28.466;-16.274;2024-03-17T10:54:59;12.23;;;3.40;;
34030;SDS011;20319;28.466;-16.274;2024-03-17T11:00:05;8.18;;;3.25;;
34030;SDS011;20319;28.466;-16.274;2024-03-17T11:02:33;13.43;;;3.58;;
34030;SDS011;20319;28.466;-16.274;2024-03-17T11:07:52;7.57;;;2.88;;
34030;SDS011;20319;28.466;-16.274;2024-03-17T11:12:56;25.58;;;18.42;;
34030;SDS011;20319;28.466;-16.274;2024-03-17T11:18:34;13.15;;;3.97;;
34030;SDS011;20319;28.466;-16.274;2024-03-17T11:20:55;11.98;;;3.67;;
34030;SDS011;20319;28.466;-16.274;2024-03-17T11:24:07;11.45;;;3.42;;
34030;SDS011;20319;28.466;-16.274;2024-03-17T11:26:44;15.10;;;3.50;;
34030;SDS011;20319;28.466;-16.274;2024-03-17T11:29:25;11.88;;;3.25;;
34030;SDS011;20319;28.466;-16.274;2024-03-17T11:31:55;10.65;;;3.65;;
34030;SDS011;20319;28.466;-16.274;2024-03-17T11:34:36;8.50;;;3.42;;
34030;SDS011;20319;28.466;-16.274;2024-03-17T11:37:05;9.95;;;3.63;;
34030;SDS011;20319;28.466;-16.274;2024-03-17T11:39:46;13.27;;;3.95;;
34030;SDS011;20319;28.466;-16.274;2024-03-17T11:42:23;14.82;;;3.88;;
34030;SDS011;20319;28.466;-16.274;2024-03-17T11:44:56;11.65;;;3.85;;
34030;SDS011;20319;28.466;-16.274;2024-03-17T11:47:28;12.57;;;3.70;;
34030;SDS011;20319;28.466;-16.274;2024-03-17T11:49:59;9.00;;;2.70;;
34030;SDS011;20319;28.466;-16.274;2024-03-17T11:52:28;12.10;;;3.60;;
34030;SDS011;20319;28.466;-16.274;2024-03-17T11:54:53;9.00;;;3.22;;
34030;SDS011;20319;28.466;-16.274;2024-03-17T11:57:26;9.10;;;3.33;;
34030;SDS011;20319;28.466;-16.274;2024-03-17T11:59:52;19.73;;;11.48;;
34030;SDS011;20319;28.466;-16.274;2024-03-17T12:04:48;13.82;;;5.22;;
34030;SDS011;20319;28.466;-16.274;2024-03-17T12:07:15;11.48;;;3.40;;
34030;SDS011;20319;28.466;-16.274;2024-03-17T12:09:42;12.48;;;3.30;;
34030;SDS011;20319;28.466;-16.274;2024-03-17T12:14:42;10.45;;;3.13;;
34030;SDS011;20319;28.466;-16.274;2024-03-17T12:17:08;12.85;;;3.67;;
34030;SDS011;20319;28.466;-16.274;2024-03-17T12:19:36;5.97;;;2.83;;
34030;SDS011;20319;28.466;-16.274;2024-03-17T12:22:07;10.80;;;3.10;;
34030;SDS011;20319;28.466;-16.274;2024-03-17T12:24:34;8.15;;;3.05;;
34030;SDS011;20319;28.466;-16.274;2024-03-17T12:27:03;7.65;;;3.33;;
34030;SDS011;20319;28.466;-16.274;2024-03-17T12:29:31;9.98;;;3.47;;
34030;SDS011;20319;28.466;-16.274;2024-03-17T12:31:59;9.63;;;3.58;;
34030;SDS011;20319;28.466;-16.274;2024-03-17T12:34:31;13.13;;;3.88;;
34030;SDS011;20319;28.466;-16.274;2024-03-17T12:36:58;18.23;;;4.47;;
34030;SDS011;20319;28.466;-16.274;2024-03-17T12:39:25;9.88;;;4.32;;
34030;SDS011;20319;28.466;-16.274;2024-03-17T12:42:08;9.85;;;3.80;;
34030;SDS011;20319;28.466;-16.274;2024-03-17T12:44:38;14.35;;;4.35;;
34030;SDS011;20319;28.466;-16.274;2024-03-17T12:47:14;11.45;;;3.90;;
34030;SDS011;20319;28.466;-16.274;2024-03-17T12:49:59;12.02;;;3.60;;
34030;SDS011;20319;28.466;-16.274;2024-03-17T12:52:29;12.65;;;4.82;;
34030;SDS011;20319;28.466;-16.274;2024-03-17T12:54:57;15.32;;;4.47;;
34030;SDS011;20319;28.466;-16.274;2024-03-17T12:57:44;13.55;;;4.80;;
34030;SDS011;20319;28.466;-16.274;2024-03-17T13:00:30;8.65;;;3.70;;
34030;SDS011;20319;28.466;-16.274;2024-03-17T13:03:02;18.85;;;4.05;;
34030;SDS011;20319;28.466;-16.274;2024-03-17T13:05:30;14.90;;;4.65;;
34030;SDS011;20319;28.466;-16.274;2024-03-17T13:07:57;12.15;;;3.67;;
34030;SDS011;20319;28.466;-16.274;2024-03-17T13:10:23;18.52;;;4.60;;
34030;SDS011;20319;28.466;-16.274;2024-03-17T13:15:28;14.00;;;4.35;;
34030;SDS011;20319;28.466;-16.274;2024-03-17T13:17:58;14.20;;;4.50;;
34030;SDS011;20319;28.466;-16.274;2024-03-17T13:20:24;18.50;;;4.25;;
34030;SDS011;20319;28.466;-16.274;2024-03-17T13:22:50;17.30;;;4.75;;
34030;SDS011;20319;28.466;-16.274;2024-03-17T13:25:17;15.02;;;3.70;;
34030;SDS011;20319;28.466;-16.274;2024-03-17T13:27:49;20.10;;;4.57;;
34030;SDS011;20319;28.466;-16.274;2024-03-17T13:30:16;17.52;;;5.20;;
34030;SDS011;20319;28.466;-16.274;2024-03-17T13:32:44;15.75;;;4.20;;
34030;SDS011;20319;28.466;-16.274;2024-03-17T13:35:16;13.68;;;4.43;;
34030;SDS011;20319;28.466;-16.274;2024-03-17T13:37:46;18.00;;;4.68;;
34030;SDS011;20319;28.466;-16.274;2024-03-17T13:40:13;15.38;;;5.35;;
34030;SDS011;20319;28.466;-16.274;2024-03-17T13:42:42;12.70;;;4.03;;
34030;SDS011;20319;28.466;-16.274;2024-03-17T13:45:12;13.27;;;4.15;;
34030;SDS011;20319;28.466;-16.274;2024-03-17T13:47:42;19.67;;;4.95;;
34030;SDS011;20319;28.466;-16.274;2024-03-17T13:50:12;15.00;;;4.55;;
34030;SDS011;20319;28.466;-16.274;2024-03-17T13:52:41;16.08;;;5.00;;
34030;SDS011;20319;28.466;-16.274;2024-03-17T13:55:18;17.55;;;4.25;;
34030;SDS011;20319;28.466;-16.274;2024-03-17T13:57:46;17.90;;;5.78;;
34030;SDS011;20319;28.466;-16.274;2024-03-17T14:00:14;21.33;;;5.50;;
34030;SDS011;20319;28.466;-16.274;2024-03-17T14:02:48;18.42;;;4.03;;
34030;SDS011;20319;28.466;-16.274;2024-03-17T14:05:15;14.70;;;3.10;;
34030;SDS011;20319;28.466;-16.274;2024-03-17T14:07:42;12.80;;;3.50;;
34030;SDS011;20319;28.466;-16.274;2024-03-17T14:10:10;9.85;;;3.35;;
34030;SDS011;20319;28.466;-16.274;2024-03-17T14:12:39;8.18;;;2.42;;
34030;SDS011;20319;28.466;-16.274;2024-03-17T14:15:05;9.57;;;3.03;;
34030;SDS011;20319;28.466;-16.274;2024-03-17T14:17:40;8.73;;;2.75;;
34030;SDS011;20319;28.466;-16.274;2024-03-17T14:20:07;13.65;;;2.78;;
34030;SDS011;20319;28.466;-16.274;2024-03-17T14:22:37;10.00;;;2.97;;
34030;SDS011;20319;28.466;-16.274;2024-03-17T14:25:06;9.93;;;2.65;;
34030;SDS011;20319;28.466;-16.274;2024-03-17T14:27:32;9.82;;;2.53;;
34030;SDS011;20319;28.466;-16.274;2024-03-17T14:29:59;7.30;;;3.33;;
34030;SDS011;20319;28.466;-16.274;2024-03-17T14:32:25;8.38;;;2.75;;
34030;SDS011;20319;28.466;-16.274;2024-03-17T14:34:50;8.68;;;2.95;;
34030;SDS011;20319;28.466;-16.274;2024-03-17T14:37:16;7.47;;;2.30;;
34030;SDS011;20319;28.466;-16.274;2024-03-17T14:39:42;6.65;;;2.60;;
34030;SDS011;20319;28.466;-16.274;2024-03-17T14:42:09;8.43;;;2.75;;
34030;SDS011;20319;28.466;-16.274;2024-03-17T14:44:35;8.07;;;2.72;;
34030;SDS011;20319;28.466;-16.274;2024-03-17T14:47:01;9.20;;;2.55;;